F/V Mailys Charlie — FMIW — position and weather

sailwx.info

Track history (hours):
 
Tides and Currents Weather Stations Pressure Air Temp Water Temp Dewpoint Dewpoint Depression Visibility Wind Speed Wind Dir Waves Ship Positions

F/V Mailys Charlie

Last reported at 2017-Jun-29 16:00 UTC. Time now 2017-Jun-29 16:07 UTC.
Position N 47°21' W 002°31'.

Length 19 m.

Type: Fishing. MMSI: 228240800.

Date/timePositionNaut miles runAvg speedWind from/ knotsBaromVisibWave heightAir tempDewpointWater temp
2017-Jun-29 16:00N 47°21' W 002°31'0 0.0
2017-Jun-29 15:30N 47°21' W 002°31'1 2.5
2017-Jun-29 14:57N 47°20' W 002°32'3 5.8
2017-Jun-29 14:30N 47°18' W 002°35'83 3.0
2017-Jun-28 11:05N 46°03' W 001°42'1 3.3
2017-Jun-28 10:41N 46°02' W 001°41'24 1.1
2017-Jun-27 12:13N 46°20' W 002°04'210.4
2017-Jun-27 12:00N 46°21' W 002°06'510.4
2017-Jun-27 11:30N 46°25' W 002°11'510.4
2017-Jun-27 10:59N 46°30' W 002°15'48 9.9
2017-Jun-27 06:06N 47°16' W 002°35'1 9.6
2017-Jun-27 05:57N 47°17' W 002°35'4 8.3
2017-Jun-27 05:30N 47°20' W 002°31'1 1.3
2017-Jun-27 05:00N 47°21' W 002°31'0 0.0
2017-Jun-27 04:30N 47°21' W 002°31'0 0.0
2017-Jun-27 04:01N 47°21' W 002°31'0 0.0
2017-Jun-27 03:30N 47°21' W 002°31'0 0.0
2017-Jun-27 03:00N 47°21' W 002°31'0 0.0
2017-Jun-27 02:30N 47°21' W 002°31'0 0.0
2017-Jun-27 02:01N 47°21' W 002°31'0 0.0
2017-Jun-27 01:30N 47°21' W 002°31'0 0.0
2017-Jun-27 01:00N 47°21' W 002°31'0 0.0
2017-Jun-27 00:30N 47°21' W 002°31'0 0.0
2017-Jun-27 00:00N 47°21' W 002°31'0 0.0
2017-Jun-26 23:30N 47°21' W 002°31'0 0.0
2017-Jun-26 23:00N 47°21' W 002°31'0 0.0
2017-Jun-26 22:30N 47°21' W 002°31'0 0.0
2017-Jun-26 22:00N 47°21' W 002°31'0 0.0
2017-Jun-26 21:30N 47°21' W 002°31'0 0.0
2017-Jun-26 21:00N 47°21' W 002°31'0 0.0
2017-Jun-26 20:31N 47°21' W 002°31'0 0.0
2017-Jun-26 20:01N 47°21' W 002°31'0 0.0
2017-Jun-26 19:30N 47°21' W 002°31'0 0.0
2017-Jun-26 19:00N 47°21' W 002°31'0 0.0
2017-Jun-26 18:30N 47°21' W 002°31'0 0.0
2017-Jun-26 18:00N 47°21' W 002°31'0 0.0
2017-Jun-26 17:30N 47°21' W 002°31'0 0.0
2017-Jun-26 17:01N 47°21' W 002°31'0 0.0
2017-Jun-26 16:31N 47°21' W 002°31'0 0.1
2017-Jun-26 15:58N 47°21' W 002°31'0 0.0
2017-Jun-26 15:30N 47°21' W 002°31'0 0.0
2017-Jun-26 14:59N 47°21' W 002°31'1 2.2
2017-Jun-26 14:30N 47°20' W 002°32'1110.3
2017-Jun-26 13:28N 47°12' W 002°43'51 9.8
2017-Jun-26 08:14N 46°43' W 003°44'28 3.4
2017-Jun-26 00:00N 46°35' W 004°23'5 2.1
2017-Jun-25 21:23N 46°35' W 004°31'3 4.3
2017-Jun-25 20:46N 46°34' W 004°28'2 4.0
2017-Jun-25 20:23N 46°33' W 004°26'4 1.7
2017-Jun-25 17:58N 46°34' W 004°20'2 0.7
2017-Jun-25 14:52N 46°33' W 004°17'4 3.1
2017-Jun-25 13:39N 46°35' W 004°14'0 1.7
2017-Jun-25 13:30N 46°36' W 004°14'3 2.5
2017-Jun-25 12:11N 46°39' W 004°16'1 4.3
2017-Jun-25 12:01N 46°38' W 004°17'3 3.9
2017-Jun-25 11:11N 46°35' W 004°19'4 3.5
2017-Jun-25 10:03N 46°32' W 004°22'0 3.7
2017-Jun-25 09:58N 46°32' W 004°22'2 3.7
2017-Jun-25 09:25N 46°30' W 004°22'2 3.7
2017-Jun-25 09:01N 46°28' W 004°21'2 2.9
2017-Jun-25 08:21N 46°26' W 004°21'1 3.2
2017-Jun-25 07:54N 46°27' W 004°23'7 3.5
2017-Jun-25 06:01N 46°31' W 004°30'1 2.8
2017-Jun-25 05:34N 46°32' W 004°32'0 1.4
2017-Jun-25 05:28N 46°32' W 004°31'3 2.5
2017-Jun-25 04:23N 46°30' W 004°28'1 3.1
2017-Jun-25 03:57N 46°29' W 004°27'4 0.4
2017-Jun-24 17:24N 46°28' W 004°21'1 2.8
2017-Jun-24 16:58N 46°27' W 004°20'47 2.2
2017-Jun-23 19:39N 47°08' W 004°54'2 2.3
2017-Jun-23 18:40N 47°06' W 004°55'5 2.2
2017-Jun-23 16:29N 47°11' W 004°54'1 2.4
2017-Jun-23 15:52N 47°09' W 004°54'1 2.5
2017-Jun-23 15:31N 47°08' W 004°54'15 1.8
2017-Jun-23 07:13N 47°22' W 005°02'4 2.6
2017-Jun-23 05:42N 47°19' W 004°58'1 2.7
2017-Jun-23 05:30N 47°19' W 004°58'9 2.2
2017-Jun-23 01:15N 47°26' W 004°49'1 2.2
2017-Jun-23 00:58N 47°25' W 004°49'5 1.1
2017-Jun-22 19:58N 47°27' W 004°56'2 3.3
2017-Jun-22 19:27N 47°27' W 004°54'2 3.4
2017-Jun-22 19:00N 47°27' W 004°52'3 6.2
2017-Jun-22 18:28N 47°29' W 004°47'510.3
2017-Jun-22 18:00N 47°31' W 004°41'510.3
2017-Jun-22 17:30N 47°33' W 004°34'7 9.7
2017-Jun-22 16:47N 47°37' W 004°25'11 9.5
2017-Jun-22 15:39N 47°42' W 004°11'5 8.8
2017-Jun-22 15:03N 47°45' W 004°04'1 8.8
2017-Jun-22 14:55N 47°45' W 004°03'4 9.1
2017-Jun-22 14:30N 47°48' W 003°59'5 1.1
2017-Jun-22 10:21N 47°52' W 003°55'3 9.0
2017-Jun-22 10:00N 47°49' W 003°58'5 9.0
2017-Jun-22 09:30N 47°46' W 004°02'4 9.0
2017-Jun-22 09:00N 47°43' W 004°08'5 8.6
2017-Jun-22 08:22N 47°42' W 004°15'3 8.5
2017-Jun-22 08:00N 47°40' W 004°19'5 9.1
2017-Jun-22 07:28N 47°37' W 004°25'9 8.8
2017-Jun-22 06:24N 47°32' W 004°37'3 8.2
2017-Jun-22 06:00N 47°30' W 004°41'5 8.4
2017-Jun-22 05:23N 47°27' W 004°47'6 8.6
2017-Jun-22 04:38N 47°24' W 004°55'2 8.3
2017-Jun-22 04:25N 47°23' W 004°58'1 1.7
2017-Jun-22 03:54N 47°23' W 004°59'2 3.2
2017-Jun-22 03:16N 47°25' W 004°59'1 3.2
2017-Jun-22 02:57N 47°26' W 004°59'1 2.8
2017-Jun-22 02:31N 47°27' W 004°57'1 2.6
2017-Jun-22 02:00N 47°27' W 004°55'1 2.6
2017-Jun-22 01:31N 47°26' W 004°53'1 2.6
2017-Jun-22 01:01N 47°26' W 004°52'1 1.7
2017-Jun-22 00:08N 47°25' W 004°53'1 3.3
2017-Jun-21 23:51N 47°25' W 004°55'1 3.3
2017-Jun-21 23:31N 47°25' W 004°56'2 3.1
2017-Jun-21 23:01N 47°25' W 004°59'1 2.3
2017-Jun-21 22:30N 47°26' W 004°59'1 2.5
2017-Jun-21 22:01N 47°27' W 004°59'1 2.5
2017-Jun-21 21:30N 47°28' W 004°58'1 2.3
2017-Jun-21 21:00N 47°29' W 004°56'2 3.2
2017-Jun-21 20:31N 47°27' W 004°56'2 3.2
2017-Jun-21 20:01N 47°26' W 004°56'2 3.1
2017-Jun-21 19:31N 47°24' W 004°55'1 1.3
2017-Jun-21 19:00N 47°23' W 004°55'0 0.7
2017-Jun-21 18:25N 47°24' W 004°55'1 1.6
2017-Jun-21 18:00N 47°24' W 004°55'1 2.3
2017-Jun-21 17:31N 47°25' W 004°56'1 2.5
2017-Jun-21 17:00N 47°26' W 004°58'1 1.9
2017-Jun-21 16:31N 47°26' W 004°58'1 2.7
2017-Jun-21 16:01N 47°26' W 004°56'1 2.6
2017-Jun-21 15:30N 47°26' W 004°55'1 2.6
2017-Jun-21 15:01N 47°26' W 004°53'1 2.4
2017-Jun-21 14:31N 47°25' W 004°51'1 1.3
2017-Jun-21 13:30N 47°24' W 004°52'2 3.0
2017-Jun-21 12:56N 47°25' W 004°55'1 3.0
2017-Jun-21 12:31N 47°25' W 004°57'2 3.1
2017-Jun-21 12:01N 47°25' W 004°59'2 2.8
2017-Jun-21 11:25N 47°24' W 004°59'1 2.7
2017-Jun-21 11:01N 47°23' W 004°58'2 2.1
2017-Jun-21 10:15N 47°24' W 004°56'1 2.2
2017-Jun-21 09:59N 47°24' W 004°55'1 2.2
2017-Jun-21 09:26N 47°25' W 004°54'2 2.0
2017-Jun-21 08:18N 47°27' W 004°53'1 2.6
2017-Jun-21 08:01N 47°27' W 004°54'1 2.6
2017-Jun-21 07:29N 47°27' W 004°56'1 2.6
2017-Jun-21 07:00N 47°27' W 004°58'1 2.6
2017-Jun-21 06:31N 47°25' W 004°59'1 2.6
2017-Jun-21 06:00N 47°24' W 004°59'1 2.5
2017-Jun-21 05:30N 47°23' W 004°59'1 2.1
2017-Jun-21 05:01N 47°22' W 004°59'1 1.7
2017-Jun-21 04:30N 47°21' W 004°60'1 1.8
2017-Jun-21 04:00N 47°22' W 004°60'3 3.1
2017-Jun-21 03:06N 47°25' W 004°59'0 3.2
2017-Jun-21 03:00N 47°25' W 004°58'1 2.9
2017-Jun-21 02:30N 47°26' W 004°57'1 2.5
2017-Jun-21 02:00N 47°27' W 004°56'1 2.5
2017-Jun-21 01:30N 47°27' W 004°54'1 2.0
2017-Jun-21 01:00N 47°27' W 004°52'1 2.3
2017-Jun-21 00:27N 47°26' W 004°53'1 2.8
2017-Jun-20 23:58N 47°24' W 004°54'2 3.0
2017-Jun-20 23:28N 47°23' W 004°55'1 2.6
2017-Jun-20 23:00N 47°23' W 004°57'1 2.9
2017-Jun-20 22:30N 47°23' W 004°59'1 2.9
2017-Jun-20 22:01N 47°23' W 005°01'1 2.8
2017-Jun-20 21:30N 47°23' W 005°03'1 2.5
2017-Jun-20 21:00N 47°24' W 005°05'2 3.4
2017-Jun-20 20:30N 47°24' W 005°08'2 2.0
2017-Jun-20 19:43N 47°24' W 005°10'1 2.4
2017-Jun-20 19:28N 47°25' W 005°10'3 2.5
2017-Jun-20 18:10N 47°27' W 005°14'1 2.9
2017-Jun-20 18:00N 47°27' W 005°15'1 2.7
2017-Jun-20 17:27N 47°25' W 005°15'1 2.7
2017-Jun-20 16:59N 47°24' W 005°14'1 2.7
2017-Jun-20 16:30N 47°23' W 005°13'2 2.8
2017-Jun-20 15:44N 47°23' W 005°10'1 3.2
2017-Jun-20 15:30N 47°23' W 005°09'2 3.1
2017-Jun-20 15:01N 47°23' W 005°07'2 3.0
2017-Jun-20 14:30N 47°24' W 005°05'3 2.8
2017-Jun-20 13:30N 47°24' W 005°01'12 2.2
2017-Jun-20 08:11N 47°32' W 005°13'0 2.7
2017-Jun-20 08:00N 47°32' W 005°12'2 2.8
2017-Jun-20 07:26N 47°32' W 005°10'2 2.9
2017-Jun-20 06:51N 47°31' W 005°07'1 2.7
2017-Jun-20 06:20N 47°31' W 005°06'1 2.6
2017-Jun-20 05:59N 47°30' W 005°06'1 2.6
2017-Jun-20 05:30N 47°29' W 005°07'1 2.5
2017-Jun-20 05:00N 47°28' W 005°09'1 2.4
2017-Jun-20 04:30N 47°27' W 005°10'1 2.2
2017-Jun-20 03:59N 47°26' W 005°11'1 2.3
2017-Jun-20 03:30N 47°25' W 005°12'1 2.5
2017-Jun-20 03:00N 47°26' W 005°11'2 3.2
2017-Jun-20 02:30N 47°28' W 005°09'4 3.1
2017-Jun-20 01:19N 47°30' W 005°06'1 2.4
2017-Jun-20 01:00N 47°31' W 005°05'  
Track history (hours):
 
Tides and Currents Weather Stations Pressure Air Temp Water Temp Dewpoint Dewpoint Depression Visibility Wind Speed Wind Dir Waves Ship Positions

F/V Mailys Charlie

Last reported at 2017-Jun-29 16:00 UTC. Time now 2017-Jun-29 16:07 UTC.
Position N 47°21' W 002°31'.

Length 19 m.

Type: Fishing. MMSI: 228240800.

Date/timePositionNaut miles runAvg speedWind from/ knotsBaromVisibWave heightAir tempDewpointWater temp
2017-Jun-29 16:00N 47°21' W 002°31'0 0.0
2017-Jun-29 15:30N 47°21' W 002°31'1 2.5
2017-Jun-29 14:57N 47°20' W 002°32'3 5.8
2017-Jun-29 14:30N 47°18' W 002°35'83 3.0
2017-Jun-28 11:05N 46°03' W 001°42'1 3.3
2017-Jun-28 10:41N 46°02' W 001°41'24 1.1
2017-Jun-27 12:13N 46°20' W 002°04'210.4
2017-Jun-27 12:00N 46°21' W 002°06'510.4
2017-Jun-27 11:30N 46°25' W 002°11'510.4
2017-Jun-27 10:59N 46°30' W 002°15'48 9.9
2017-Jun-27 06:06N 47°16' W 002°35'1 9.6
2017-Jun-27 05:57N 47°17' W 002°35'4 8.3
2017-Jun-27 05:30N 47°20' W 002°31'1 1.3
2017-Jun-27 05:00N 47°21' W 002°31'0 0.0
2017-Jun-27 04:30N 47°21' W 002°31'0 0.0
2017-Jun-27 04:01N 47°21' W 002°31'0 0.0
2017-Jun-27 03:30N 47°21' W 002°31'0 0.0
2017-Jun-27 03:00N 47°21' W 002°31'0 0.0
2017-Jun-27 02:30N 47°21' W 002°31'0 0.0
2017-Jun-27 02:01N 47°21' W 002°31'0 0.0
2017-Jun-27 01:30N 47°21' W 002°31'0 0.0
2017-Jun-27 01:00N 47°21' W 002°31'0 0.0
2017-Jun-27 00:30N 47°21' W 002°31'0 0.0
2017-Jun-27 00:00N 47°21' W 002°31'0 0.0
2017-Jun-26 23:30N 47°21' W 002°31'0 0.0
2017-Jun-26 23:00N 47°21' W 002°31'0 0.0
2017-Jun-26 22:30N 47°21' W 002°31'0 0.0
2017-Jun-26 22:00N 47°21' W 002°31'0 0.0
2017-Jun-26 21:30N 47°21' W 002°31'0 0.0
2017-Jun-26 21:00N 47°21' W 002°31'0 0.0
2017-Jun-26 20:31N 47°21' W 002°31'0 0.0
2017-Jun-26 20:01N 47°21' W 002°31'0 0.0
2017-Jun-26 19:30N 47°21' W 002°31'0 0.0
2017-Jun-26 19:00N 47°21' W 002°31'0 0.0
2017-Jun-26 18:30N 47°21' W 002°31'0 0.0
2017-Jun-26 18:00N 47°21' W 002°31'0 0.0
2017-Jun-26 17:30N 47°21' W 002°31'0 0.0
2017-Jun-26 17:01N 47°21' W 002°31'0 0.0
2017-Jun-26 16:31N 47°21' W 002°31'0 0.1
2017-Jun-26 15:58N 47°21' W 002°31'0 0.0
2017-Jun-26 15:30N 47°21' W 002°31'0 0.0
2017-Jun-26 14:59N 47°21' W 002°31'1 2.2
2017-Jun-26 14:30N 47°20' W 002°32'1110.3
2017-Jun-26 13:28N 47°12' W 002°43'51 9.8
2017-Jun-26 08:14N 46°43' W 003°44'28 3.4
2017-Jun-26 00:00N 46°35' W 004°23'5 2.1
2017-Jun-25 21:23N 46°35' W 004°31'3 4.3
2017-Jun-25 20:46N 46°34' W 004°28'2 4.0
2017-Jun-25 20:23N 46°33' W 004°26'4 1.7
2017-Jun-25 17:58N 46°34' W 004°20'2 0.7
2017-Jun-25 14:52N 46°33' W 004°17'4 3.1
2017-Jun-25 13:39N 46°35' W 004°14'0 1.7
2017-Jun-25 13:30N 46°36' W 004°14'3 2.5
2017-Jun-25 12:11N 46°39' W 004°16'1 4.3
2017-Jun-25 12:01N 46°38' W 004°17'3 3.9
2017-Jun-25 11:11N 46°35' W 004°19'4 3.5
2017-Jun-25 10:03N 46°32' W 004°22'0 3.7
2017-Jun-25 09:58N 46°32' W 004°22'2 3.7
2017-Jun-25 09:25N 46°30' W 004°22'2 3.7
2017-Jun-25 09:01N 46°28' W 004°21'2 2.9
2017-Jun-25 08:21N 46°26' W 004°21'1 3.2
2017-Jun-25 07:54N 46°27' W 004°23'7 3.5
2017-Jun-25 06:01N 46°31' W 004°30'1 2.8
2017-Jun-25 05:34N 46°32' W 004°32'0 1.4
2017-Jun-25 05:28N 46°32' W 004°31'3 2.5
2017-Jun-25 04:23N 46°30' W 004°28'1 3.1
2017-Jun-25 03:57N 46°29' W 004°27'4 0.4
2017-Jun-24 17:24N 46°28' W 004°21'1 2.8
2017-Jun-24 16:58N 46°27' W 004°20'47 2.2
2017-Jun-23 19:39N 47°08' W 004°54'2 2.3
2017-Jun-23 18:40N 47°06' W 004°55'5 2.2
2017-Jun-23 16:29N 47°11' W 004°54'1 2.4
2017-Jun-23 15:52N 47°09' W 004°54'1 2.5
2017-Jun-23 15:31N 47°08' W 004°54'15 1.8
2017-Jun-23 07:13N 47°22' W 005°02'4 2.6
2017-Jun-23 05:42N 47°19' W 004°58'1 2.7
2017-Jun-23 05:30N 47°19' W 004°58'9 2.2
2017-Jun-23 01:15N 47°26' W 004°49'1 2.2
2017-Jun-23 00:58N 47°25' W 004°49'5 1.1
2017-Jun-22 19:58N 47°27' W 004°56'2 3.3
2017-Jun-22 19:27N 47°27' W 004°54'2 3.4
2017-Jun-22 19:00N 47°27' W 004°52'3 6.2
2017-Jun-22 18:28N 47°29' W 004°47'510.3
2017-Jun-22 18:00N 47°31' W 004°41'510.3
2017-Jun-22 17:30N 47°33' W 004°34'7 9.7
2017-Jun-22 16:47N 47°37' W 004°25'11 9.5
2017-Jun-22 15:39N 47°42' W 004°11'5 8.8
2017-Jun-22 15:03N 47°45' W 004°04'1 8.8
2017-Jun-22 14:55N 47°45' W 004°03'4 9.1
2017-Jun-22 14:30N 47°48' W 003°59'5 1.1
2017-Jun-22 10:21N 47°52' W 003°55'3 9.0
2017-Jun-22 10:00N 47°49' W 003°58'5 9.0
2017-Jun-22 09:30N 47°46' W 004°02'4 9.0
2017-Jun-22 09:00N 47°43' W 004°08'5 8.6
2017-Jun-22 08:22N 47°42' W 004°15'3 8.5
2017-Jun-22 08:00N 47°40' W 004°19'5 9.1
2017-Jun-22 07:28N 47°37' W 004°25'9 8.8
2017-Jun-22 06:24N 47°32' W 004°37'3 8.2
2017-Jun-22 06:00N 47°30' W 004°41'5 8.4
2017-Jun-22 05:23N 47°27' W 004°47'6 8.6
2017-Jun-22 04:38N 47°24' W 004°55'2 8.3
2017-Jun-22 04:25N 47°23' W 004°58'1 1.7
2017-Jun-22 03:54N 47°23' W 004°59'2 3.2
2017-Jun-22 03:16N 47°25' W 004°59'1 3.2
2017-Jun-22 02:57N 47°26' W 004°59'1 2.8
2017-Jun-22 02:31N 47°27' W 004°57'1 2.6
2017-Jun-22 02:00N 47°27' W 004°55'1 2.6
2017-Jun-22 01:31N 47°26' W 004°53'1 2.6
2017-Jun-22 01:01N 47°26' W 004°52'1 1.7
2017-Jun-22 00:08N 47°25' W 004°53'1 3.3
2017-Jun-21 23:51N 47°25' W 004°55'1 3.3
2017-Jun-21 23:31N 47°25' W 004°56'2 3.1
2017-Jun-21 23:01N 47°25' W 004°59'1 2.3
2017-Jun-21 22:30N 47°26' W 004°59'1 2.5
2017-Jun-21 22:01N 47°27' W 004°59'1 2.5
2017-Jun-21 21:30N 47°28' W 004°58'1 2.3
2017-Jun-21 21:00N 47°29' W 004°56'2 3.2
2017-Jun-21 20:31N 47°27' W 004°56'2 3.2
2017-Jun-21 20:01N 47°26' W 004°56'2 3.1
2017-Jun-21 19:31N 47°24' W 004°55'1 1.3
2017-Jun-21 19:00N 47°23' W 004°55'0 0.7
2017-Jun-21 18:25N 47°24' W 004°55'1 1.6
2017-Jun-21 18:00N 47°24' W 004°55'1 2.3
2017-Jun-21 17:31N 47°25' W 004°56'1 2.5
2017-Jun-21 17:00N 47°26' W 004°58'1 1.9
2017-Jun-21 16:31N 47°26' W 004°58'1 2.7
2017-Jun-21 16:01N 47°26' W 004°56'1 2.6
2017-Jun-21 15:30N 47°26' W 004°55'1 2.6
2017-Jun-21 15:01N 47°26' W 004°53'1 2.4
2017-Jun-21 14:31N 47°25' W 004°51'1 1.3
2017-Jun-21 13:30N 47°24' W 004°52'2 3.0
2017-Jun-21 12:56N 47°25' W 004°55'1 3.0
2017-Jun-21 12:31N 47°25' W 004°57'2 3.1
2017-Jun-21 12:01N 47°25' W 004°59'2 2.8
2017-Jun-21 11:25N 47°24' W 004°59'1 2.7
2017-Jun-21 11:01N 47°23' W 004°58'2 2.1
2017-Jun-21 10:15N 47°24' W 004°56'1 2.2
2017-Jun-21 09:59N 47°24' W 004°55'1 2.2
2017-Jun-21 09:26N 47°25' W 004°54'2 2.0
2017-Jun-21 08:18N 47°27' W 004°53'1 2.6
2017-Jun-21 08:01N 47°27' W 004°54'1 2.6
2017-Jun-21 07:29N 47°27' W 004°56'1 2.6
2017-Jun-21 07:00N 47°27' W 004°58'1 2.6
2017-Jun-21 06:31N 47°25' W 004°59'1 2.6
2017-Jun-21 06:00N 47°24' W 004°59'1 2.5
2017-Jun-21 05:30N 47°23' W 004°59'1 2.1
2017-Jun-21 05:01N 47°22' W 004°59'1 1.7
2017-Jun-21 04:30N 47°21' W 004°60'1 1.8
2017-Jun-21 04:00N 47°22' W 004°60'3 3.1
2017-Jun-21 03:06N 47°25' W 004°59'0 3.2
2017-Jun-21 03:00N 47°25' W 004°58'1 2.9
2017-Jun-21 02:30N 47°26' W 004°57'1 2.5
2017-Jun-21 02:00N 47°27' W 004°56'1 2.5
2017-Jun-21 01:30N 47°27' W 004°54'1 2.0
2017-Jun-21 01:00N 47°27' W 004°52'1 2.3
2017-Jun-21 00:27N 47°26' W 004°53'1 2.8
2017-Jun-20 23:58N 47°24' W 004°54'2 3.0
2017-Jun-20 23:28N 47°23' W 004°55'1 2.6
2017-Jun-20 23:00N 47°23' W 004°57'1 2.9
2017-Jun-20 22:30N 47°23' W 004°59'1 2.9
2017-Jun-20 22:01N 47°23' W 005°01'1 2.8
2017-Jun-20 21:30N 47°23' W 005°03'1 2.5
2017-Jun-20 21:00N 47°24' W 005°05'2 3.4
2017-Jun-20 20:30N 47°24' W 005°08'2 2.0
2017-Jun-20 19:43N 47°24' W 005°10'1 2.4
2017-Jun-20 19:28N 47°25' W 005°10'3 2.5
2017-Jun-20 18:10N 47°27' W 005°14'1 2.9
2017-Jun-20 18:00N 47°27' W 005°15'1 2.7
2017-Jun-20 17:27N 47°25' W 005°15'1 2.7
2017-Jun-20 16:59N 47°24' W 005°14'1 2.7
2017-Jun-20 16:30N 47°23' W 005°13'2 2.8
2017-Jun-20 15:44N 47°23' W 005°10'1 3.2
2017-Jun-20 15:30N 47°23' W 005°09'2 3.1
2017-Jun-20 15:01N 47°23' W 005°07'2 3.0
2017-Jun-20 14:30N 47°24' W 005°05'3 2.8
2017-Jun-20 13:30N 47°24' W 005°01'12 2.2
2017-Jun-20 08:11N 47°32' W 005°13'0 2.7
2017-Jun-20 08:00N 47°32' W 005°12'2 2.8
2017-Jun-20 07:26N 47°32' W 005°10'2 2.9
2017-Jun-20 06:51N 47°31' W 005°07'1 2.7
2017-Jun-20 06:20N 47°31' W 005°06'1 2.6
2017-Jun-20 05:59N 47°30' W 005°06'1 2.6
2017-Jun-20 05:30N 47°29' W 005°07'1 2.5
2017-Jun-20 05:00N 47°28' W 005°09'1 2.4
2017-Jun-20 04:30N 47°27' W 005°10'1 2.2
2017-Jun-20 03:59N 47°26' W 005°11'1 2.3
2017-Jun-20 03:30N 47°25' W 005°12'1 2.5
2017-Jun-20 03:00N 47°26' W 005°11'2 3.2
2017-Jun-20 02:30N 47°28' W 005°09'4 3.1
2017-Jun-20 01:19N 47°30' W 005°06'1 2.4
2017-Jun-20 01:00N 47°31' W 005°05'  

Dump ship's entire track history